Time,TemperatureF,DewpointF,PressureIn,WindDirection,WindDirectionDegrees,WindSpeedMPH,WindSpeedGustMPH,Humidity,HourlyPrecipIn,Conditions,Clouds,dailyrainin,SoftwareType,DateUTC
2013-11-01 00:23:00,48.0,45.0,29.55,SSE,151,0.0,0.0,91,0.00,,,0.11,,2013-11-01 05:23:00,
2013-11-01 00:53:00,47.0,45.0,29.56,SSE,151,0.0,0.0,91,0.00,,,0.11,,2013-11-01 05:53:00,
2013-11-01 01:22:00,46.0,44.0,29.56,SSE,151,0.0,0.0,91,0.00,,,0.11,,2013-11-01 06:22:00,
2013-11-01 01:52:00,46.0,44.0,29.56,SSE,151,1.0,4.0,91,0.00,,,0.11,,2013-11-01 06:52:00,
2013-11-01 02:21:00,46.0,44.0,29.57,South,186,3.0,6.0,91,0.00,,,0.11,,2013-11-01 07:21:00,
2013-11-01 02:52:00,47.0,45.0,29.57,South,188,0.0,4.0,91,0.00,,,0.11,,2013-11-01 07:52:00,
2013-11-01 03:21:00,48.0,45.0,29.57,South,187,0.0,3.0,91,0.00,,,0.11,,2013-11-01 08:21:00,
2013-11-01 03:52:00,48.0,45.0,29.57,East,87,0.0,0.0,91,0.00,,,0.11,,2013-11-01 08:52:00,
2013-11-01 04:21:00,48.0,45.0,29.59,South,181,0.0,2.0,91,0.00,,,0.11,,2013-11-01 09:21:00,
2013-11-01 04:53:00,48.0,45.0,29.58,South,181,0.0,0.0,91,0.00,,,0.11,,2013-11-01 09:53:00,
2013-11-01 05:23:00,48.0,45.0,29.59,South,181,0.0,0.0,91,0.00,,,0.11,,2013-11-01 10:23:00,
2013-11-01 05:53:00,48.0,45.0,29.60,South,183,0.0,0.0,91,0.00,,,0.11,,2013-11-01 10:53:00,
2013-11-01 06:22:00,46.0,44.0,29.61,South,183,0.0,0.0,91,0.00,,,0.11,,2013-11-01 11:22:00,
2013-11-01 06:52:00,44.0,42.0,29.61,South,183,0.0,0.0,91,0.00,,,0.11,,2013-11-01 11:52:00,
2013-11-01 07:22:00,43.0,41.0,29.61,South,183,0.0,0.0,91,0.00,,,0.11,,2013-11-01 12:22:00,
2013-11-01 07:42:00,42.0,40.0,29.62,South,183,0.0,0.0,91,0.00,,,0.11,,2013-11-01 12:42:00,
2013-11-01 07:52:00,42.0,40.0,29.62,South,183,0.0,0.0,91,0.00,,,0.11,,2013-11-01 12:52:00,
2013-11-01 08:22:00,42.0,40.0,29.63,South,183,0.0,0.0,91,0.00,,,0.11,,2013-11-01 13:22:00,
2013-11-01 08:52:00,45.0,43.0,29.64,South,183,0.0,0.0,91,0.00,,,0.11,,2013-11-01 13:52:00,
2013-11-01 09:22:00,48.0,45.0,29.66,SE,129,0.0,2.0,91,0.00,,,0.11,,2013-11-01 14:22:00,
2013-11-01 09:52:00,48.0,45.0,29.66,NE,38,0.0,4.0,91,0.00,,,0.11,,2013-11-01 14:52:00,
2013-11-01 10:21:00,49.0,46.0,29.66,ESE,102,0.0,0.0,91,0.00,,,0.11,,2013-11-01 15:21:00,
2013-11-01 10:43:00,49.0,46.0,29.66,East,94,0.0,2.0,91,0.00,,,0.11,,2013-11-01 15:43:00,
2013-11-01 10:54:00,51.0,48.0,29.67,NNE,30,0.0,7.0,91,0.00,,,0.11,,2013-11-01 15:54:00,
2013-11-01 11:23:00,51.0,48.0,29.68,ESE,112,0.0,4.0,88,0.00,,,0.11,,2013-11-01 16:23:00,
2013-11-01 11:43:00,51.0,47.0,29.68,NNW,341,1.0,9.0,87,0.00,,,0.11,,2013-11-01 16:43:00,
2013-11-01 11:53:00,53.0,48.0,29.68,North,360,0.0,3.0,82,0.00,,,0.11,,2013-11-01 16:53:00,
2013-11-01 12:22:00,54.0,44.0,29.69,ENE,57,0.0,4.0,70,0.00,,,0.11,,2013-11-01 17:22:00,
2013-11-01 12:52:00,53.0,43.0,29.69,ESE,112,0.0,3.0,70,0.00,,,0.11,,2013-11-01 17:52:00,
2013-11-01 13:22:00,55.0,43.0,29.69,SSE,157,2.0,6.0,64,0.00,,,0.11,,2013-11-01 18:22:00,
2013-11-01 13:52:00,56.0,43.0,29.68,ENE,63,0.0,5.0,61,0.00,,,0.11,,2013-11-01 18:52:00,
2013-11-01 14:21:00,53.0,42.0,29.69,East,79,0.0,4.0,66,0.00,,,0.11,,2013-11-01 19:21:00,
2013-11-01 14:52:00,56.0,44.0,29.69,North,355,0.0,4.0,64,0.00,,,0.11,,2013-11-01 19:52:00,
2013-11-01 15:12:00,57.0,43.0,29.70,NE,41,0.0,4.0,60,0.00,,,0.11,,2013-11-01 20:12:00,
2013-11-01 15:22:00,56.0,43.0,29.70,East,89,0.0,1.0,61,0.00,,,0.09,,2013-11-01 20:22:00,
2013-11-01 15:42:00,57.0,43.0,29.70,SE,129,0.0,7.0,59,0.00,,,0.09,,2013-11-01 20:42:00,
2013-11-01 15:52:00,55.0,42.0,29.70,ESE,107,0.0,5.0,62,0.00,,,0.09,,2013-11-01 20:52:00,
2013-11-01 16:22:00,54.0,42.0,29.72,ENE,65,0.0,6.0,64,0.00,,,0.09,,2013-11-01 21:22:00,
2013-11-01 16:43:00,54.0,43.0,29.72,NNE,26,0.0,3.0,65,0.00,,,0.09,,2013-11-01 21:43:00,
2013-11-01 16:55:00,53.0,43.0,29.73,East,86,0.0,2.0,68,0.00,,,0.09,,2013-11-01 21:55:00,
2013-11-01 17:24:00,53.0,43.0,29.74,NE,38,0.0,3.0,69,0.00,,,0.09,,2013-11-01 22:24:00,
2013-11-01 17:42:00,52.0,43.0,29.73,ENE,63,0.0,3.0,70,0.00,,,0.09,,2013-11-01 22:42:00,
2013-11-01 17:53:00,52.0,43.0,29.75,North,360,0.0,7.0,70,0.00,,,0.09,,2013-11-01 22:53:00,
2013-11-01 18:22:00,51.0,43.0,29.76,NW,325,0.0,5.0,73,0.00,,,0.09,,2013-11-01 23:22:00,
2013-11-01 18:53:00,51.0,43.0,29.77,ENE,67,0.0,10.0,75,0.00,,,0.09,,2013-11-01 23:53:00,
2013-11-01 19:22:00,50.0,42.0,29.78,NNE,13,1.0,5.0,75,0.00,,,0.00,,2013-11-02 00:22:00,
2013-11-01 19:42:00,50.0,43.0,29.79,North,355,1.0,6.0,76,0.00,,,0.00,,2013-11-02 00:42:00,
2013-11-01 19:52:00,49.0,42.0,29.79,NNW,345,1.0,2.0,77,0.00,,,0.00,,2013-11-02 00:52:00,
2013-11-01 20:22:00,48.0,41.0,29.80,North,355,0.0,0.0,78,0.00,,,0.00,,2013-11-02 01:22:00,
2013-11-01 20:42:00,48.0,42.0,29.79,North,355,0.0,0.0,79,0.00,,,0.00,,2013-11-02 01:42:00,
2013-11-01 20:52:00,47.0,41.0,29.80,North,355,0.0,0.0,79,0.00,,,0.00,,2013-11-02 01:52:00,
2013-11-01 21:22:00,44.0,39.0,29.80,North,355,0.0,0.0,81,0.00,,,0.00,,2013-11-02 02:22:00,
2013-11-01 21:42:00,43.0,38.0,29.80,North,355,0.0,0.0,83,0.00,,,0.00,,2013-11-02 02:42:00,
2013-11-01 21:53:00,42.0,38.0,29.80,North,355,0.0,0.0,84,0.00,,,0.00,,2013-11-02 02:53:00,
2013-11-01 22:22:00,42.0,38.0,29.81,North,355,0.0,0.0,87,0.00,,,0.00,,2013-11-02 03:22:00,
2013-11-01 22:44:00,42.0,38.0,29.81,North,355,0.0,0.0,87,0.00,,,0.00,,2013-11-02 03:44:00,
2013-11-01 22:53:00,42.0,39.0,29.81,North,355,0.0,1.0,88,0.00,,,0.00,,2013-11-02 03:53:00,
2013-11-01 23:24:00,41.0,38.0,29.81,North,355,0.0,1.0,89,0.00,,,0.00,,2013-11-02 04:24:00,
2013-11-01 23:43:00,41.0,38.0,29.81,North,355,0.0,1.0,89,0.00,,,0.00,,2013-11-02 04:43:00,
2013-11-01 23:54:00,40.0,37.0,29.81,North,355,0.0,0.0,89,0.00,,,0.00,,2013-11-02 04:54:00,